sensor_id;sensor_type;location;lat;lon;timestamp;P1;durP1;ratioP1;P2;durP2;ratioP2
75234;SDS011;63817;51.228;-1.472;2023-04-02T00:03:24;12.07;;;6.90;;
75234;SDS011;63817;51.228;-1.472;2023-04-02T00:05:49;12.38;;;7.57;;
75234;SDS011;63817;51.228;-1.472;2023-04-02T00:08:22;13.93;;;7.35;;
75234;SDS011;63817;51.228;-1.472;2023-04-02T00:11:02;10.65;;;6.82;;
75234;SDS011;63817;51.228;-1.472;2023-04-02T00:13:31;14.35;;;7.47;;
75234;SDS011;63817;51.228;-1.472;2023-04-02T00:16:01;10.57;;;6.65;;
75234;SDS011;63817;51.228;-1.472;2023-04-02T00:18:30;14.93;;;7.43;;
75234;SDS011;63817;51.228;-1.472;2023-04-02T00:23:32;10.88;;;7.05;;
75234;SDS011;63817;51.228;-1.472;2023-04-02T00:26:00;12.35;;;6.88;;
75234;SDS011;63817;51.228;-1.472;2023-04-02T00:28:26;11.48;;;6.50;;
75234;SDS011;63817;51.228;-1.472;2023-04-02T00:30:52;10.57;;;6.30;;
75234;SDS011;63817;51.228;-1.472;2023-04-02T00:33:20;13.05;;;7.25;;
75234;SDS011;63817;51.228;-1.472;2023-04-02T00:35:47;12.93;;;6.68;;
75234;SDS011;63817;51.228;-1.472;2023-04-02T00:38:25;11.93;;;7.13;;
75234;SDS011;63817;51.228;-1.472;2023-04-02T00:40:57;9.98;;;5.93;;
75234;SDS011;63817;51.228;-1.472;2023-04-02T00:43:30;11.02;;;5.57;;
75234;SDS011;63817;51.228;-1.472;2023-04-02T00:45:58;10.25;;;6.00;;
75234;SDS011;63817;51.228;-1.472;2023-04-02T00:50:53;7.65;;;5.22;;
75234;SDS011;63817;51.228;-1.472;2023-04-02T00:53:28;9.68;;;4.72;;
75234;SDS011;63817;51.228;-1.472;2023-04-02T00:55:56;8.02;;;4.80;;
75234;SDS011;63817;51.228;-1.472;2023-04-02T00:58:25;10.30;;;6.03;;
75234;SDS011;63817;51.228;-1.472;2023-04-02T01:00:56;8.82;;;6.00;;
75234;SDS011;63817;51.228;-1.472;2023-04-02T01:03:25;10.38;;;5.38;;
75234;SDS011;63817;51.228;-1.472;2023-04-02T01:06:07;9.73;;;5.68;;
75234;SDS011;63817;51.228;-1.472;2023-04-02T01:11:49;9.35;;;5.47;;
75234;SDS011;63817;51.228;-1.472;2023-04-02T01:14:57;5.40;;;2.60;;
75234;SDS011;63817;51.228;-1.472;2023-04-02T01:23:12;2.40;;;1.80;;
75234;SDS011;63817;51.228;-1.472;2023-04-02T01:25:53;1.95;;;1.67;;
75234;SDS011;63817;51.228;-1.472;2023-04-02T01:31:19;2.67;;;1.73;;
75234;SDS011;63817;51.228;-1.472;2023-04-02T01:33:45;3.58;;;1.60;;
75234;SDS011;63817;51.228;-1.472;2023-04-02T01:42:27;4.10;;;1.63;;
75234;SDS011;63817;51.228;-1.472;2023-04-02T01:45:00;3.75;;;2.40;;
75234;SDS011;63817;51.228;-1.472;2023-04-02T01:47:29;3.00;;;2.15;;
75234;SDS011;63817;51.228;-1.472;2023-04-02T01:50:10;2.90;;;1.90;;
75234;SDS011;63817;51.228;-1.472;2023-04-02T01:52:45;4.50;;;2.20;;
75234;SDS011;63817;51.228;-1.472;2023-04-02T01:55:14;2.40;;;2.20;;
75234;SDS011;63817;51.228;-1.472;2023-04-02T01:57:44;2.63;;;1.98;;
75234;SDS011;63817;51.228;-1.472;2023-04-02T02:00:12;2.17;;;1.75;;
75234;SDS011;63817;51.228;-1.472;2023-04-02T02:02:39;6.00;;;2.10;;
75234;SDS011;63817;51.228;-1.472;2023-04-02T02:05:05;5.88;;;2.10;;
75234;SDS011;63817;51.228;-1.472;2023-04-02T02:07:37;4.13;;;2.30;;
75234;SDS011;63817;51.228;-1.472;2023-04-02T02:10:03;4.90;;;2.15;;
75234;SDS011;63817;51.228;-1.472;2023-04-02T02:12:28;2.75;;;2.00;;
75234;SDS011;63817;51.228;-1.472;2023-04-02T02:14:55;2.30;;;2.10;;
75234;SDS011;63817;51.228;-1.472;2023-04-02T02:17:23;4.13;;;2.20;;
75234;SDS011;63817;51.228;-1.472;2023-04-02T02:19:52;4.68;;;2.35;;
75234;SDS011;63817;51.228;-1.472;2023-04-02T02:24:59;4.28;;;2.60;;
75234;SDS011;63817;51.228;-1.472;2023-04-02T02:27:39;4.53;;;2.78;;
75234;SDS011;63817;51.228;-1.472;2023-04-02T02:32:56;3.88;;;2.50;;
75234;SDS011;63817;51.228;-1.472;2023-04-02T02:35:31;4.22;;;2.00;;
75234;SDS011;63817;51.228;-1.472;2023-04-02T02:41:12;3.80;;;1.97;;
75234;SDS011;63817;51.228;-1.472;2023-04-02T02:43:43;3.17;;;2.25;;
75234;SDS011;63817;51.228;-1.472;2023-04-02T02:46:16;2.75;;;2.20;;
75234;SDS011;63817;51.228;-1.472;2023-04-02T02:48:44;3.35;;;2.15;;
75234;SDS011;63817;51.228;-1.472;2023-04-02T02:51:14;3.00;;;1.95;;
75234;SDS011;63817;51.228;-1.472;2023-04-02T02:53:45;4.03;;;2.13;;
75234;SDS011;63817;51.228;-1.472;2023-04-02T02:56:14;2.95;;;2.15;;
75234;SDS011;63817;51.228;-1.472;2023-04-02T02:58:40;4.78;;;2.15;;
75234;SDS011;63817;51.228;-1.472;2023-04-02T03:01:05;2.92;;;1.67;;
75234;SDS011;63817;51.228;-1.472;2023-04-02T03:03:31;3.28;;;2.13;;
75234;SDS011;63817;51.228;-1.472;2023-04-02T03:06:05;4.13;;;2.40;;
75234;SDS011;63817;51.228;-1.472;2023-04-02T03:08:33;4.30;;;2.17;;
75234;SDS011;63817;51.228;-1.472;2023-04-02T03:13:36;2.25;;;1.90;;
75234;SDS011;63817;51.228;-1.472;2023-04-02T03:16:10;5.20;;;2.33;;
75234;SDS011;63817;51.228;-1.472;2023-04-02T03:21:32;4.28;;;2.92;;
75234;SDS011;63817;51.228;-1.472;2023-04-02T03:24:02;3.72;;;2.60;;
75234;SDS011;63817;51.228;-1.472;2023-04-02T03:26:41;4.32;;;2.70;;
75234;SDS011;63817;51.228;-1.472;2023-04-02T03:31:41;4.68;;;3.17;;
75234;SDS011;63817;51.228;-1.472;2023-04-02T03:34:17;3.60;;;2.53;;
75234;SDS011;63817;51.228;-1.472;2023-04-02T03:37:00;4.05;;;2.97;;
75234;SDS011;63817;51.228;-1.472;2023-04-02T03:42:06;4.43;;;3.13;;
75234;SDS011;63817;51.228;-1.472;2023-04-02T03:44:38;3.85;;;2.92;;
75234;SDS011;63817;51.228;-1.472;2023-04-02T03:49:38;4.93;;;3.60;;
75234;SDS011;63817;51.228;-1.472;2023-04-02T03:52:12;6.15;;;3.80;;
75234;SDS011;63817;51.228;-1.472;2023-04-02T03:54:39;4.47;;;3.13;;
75234;SDS011;63817;51.228;-1.472;2023-04-02T03:57:11;5.95;;;4.32;;
75234;SDS011;63817;51.228;-1.472;2023-04-02T04:00:04;6.18;;;3.67;;
75234;SDS011;63817;51.228;-1.472;2023-04-02T04:05:18;4.88;;;3.17;;
75234;SDS011;63817;51.228;-1.472;2023-04-02T04:07:48;7.13;;;3.63;;
75234;SDS011;63817;51.228;-1.472;2023-04-02T04:10:16;3.97;;;3.13;;
75234;SDS011;63817;51.228;-1.472;2023-04-02T04:12:46;6.60;;;3.65;;
75234;SDS011;63817;51.228;-1.472;2023-04-02T04:18:32;4.80;;;3.65;;
75234;SDS011;63817;51.228;-1.472;2023-04-02T04:20:41;4.68;;;3.28;;
75234;SDS011;63817;51.228;-1.472;2023-04-02T04:23:16;5.13;;;3.20;;
75234;SDS011;63817;51.228;-1.472;2023-04-02T04:26:01;6.60;;;2.90;;
75234;SDS011;63817;51.228;-1.472;2023-04-02T04:28:42;5.53;;;3.13;;
75234;SDS011;63817;51.228;-1.472;2023-04-02T04:34:06;3.90;;;2.88;;
75234;SDS011;63817;51.228;-1.472;2023-04-02T04:36:38;4.38;;;2.55;;
75234;SDS011;63817;51.228;-1.472;2023-04-02T04:39:18;5.47;;;2.63;;
75234;SDS011;63817;51.228;-1.472;2023-04-02T04:41:48;4.53;;;2.88;;
75234;SDS011;63817;51.228;-1.472;2023-04-02T04:44:15;3.40;;;2.50;;
75234;SDS011;63817;51.228;-1.472;2023-04-02T04:46:47;6.22;;;2.58;;
75234;SDS011;63817;51.228;-1.472;2023-04-02T04:49:16;2.67;;;2.05;;
75234;SDS011;63817;51.228;-1.472;2023-04-02T04:52:25;3.92;;;2.40;;
75234;SDS011;63817;51.228;-1.472;2023-04-02T04:54:53;3.17;;;2.10;;
75234;SDS011;63817;51.228;-1.472;2023-04-02T04:57:26;3.97;;;2.05;;
75234;SDS011;63817;51.228;-1.472;2023-04-02T05:02:33;4.50;;;2.47;;
75234;SDS011;63817;51.228;-1.472;2023-04-02T05:05:23;3.10;;;2.33;;
75234;SDS011;63817;51.228;-1.472;2023-04-02T05:07:52;2.50;;;2.00;;
75234;SDS011;63817;51.228;-1.472;2023-04-02T05:13:05;3.58;;;2.72;;
75234;SDS011;63817;51.228;-1.472;2023-04-02T05:15:56;3.72;;;2.78;;
75234;SDS011;63817;51.228;-1.472;2023-04-02T05:18:33;3.95;;;3.03;;
75234;SDS011;63817;51.228;-1.472;2023-04-02T05:21:04;5.03;;;2.83;;
75234;SDS011;63817;51.228;-1.472;2023-04-02T05:23:36;3.35;;;3.00;;
75234;SDS011;63817;51.228;-1.472;2023-04-02T05:26:13;4.75;;;3.33;;
75234;SDS011;63817;51.228;-1.472;2023-04-02T05:28:46;7.22;;;3.92;;
75234;SDS011;63817;51.228;-1.472;2023-04-02T05:31:25;6.50;;;4.03;;
75234;SDS011;63817;51.228;-1.472;2023-04-02T05:33:52;7.00;;;3.72;;
75234;SDS011;63817;51.228;-1.472;2023-04-02T05:36:20;8.13;;;4.35;;
75234;SDS011;63817;51.228;-1.472;2023-04-02T05:38:47;6.68;;;4.15;;
75234;SDS011;63817;51.228;-1.472;2023-04-02T05:41:23;4.82;;;3.85;;
75234;SDS011;63817;51.228;-1.472;2023-04-02T05:43:54;6.18;;;4.32;;
75234;SDS011;63817;51.228;-1.472;2023-04-02T05:47:03;5.78;;;4.30;;
75234;SDS011;63817;51.228;-1.472;2023-04-02T05:49:50;6.75;;;4.47;;
75234;SDS011;63817;51.228;-1.472;2023-04-02T05:58:21;8.23;;;5.18;;
75234;SDS011;63817;51.228;-1.472;2023-04-02T06:03:26;8.55;;;5.18;;
75234;SDS011;63817;51.228;-1.472;2023-04-02T06:05:51;8.93;;;5.70;;
75234;SDS011;63817;51.228;-1.472;2023-04-02T06:08:21;7.63;;;5.25;;
75234;SDS011;63817;51.228;-1.472;2023-04-02T06:10:51;8.30;;;5.05;;
75234;SDS011;63817;51.228;-1.472;2023-04-02T06:13:19;7.50;;;5.15;;
75234;SDS011;63817;51.228;-1.472;2023-04-02T06:15:45;8.07;;;5.55;;
75234;SDS011;63817;51.228;-1.472;2023-04-02T06:20:52;7.47;;;4.30;;
75234;SDS011;63817;51.228;-1.472;2023-04-02T06:25:58;7.97;;;5.13;;
75234;SDS011;63817;51.228;-1.472;2023-04-02T06:28:28;6.47;;;4.80;;
75234;SDS011;63817;51.228;-1.472;2023-04-02T06:31:00;6.82;;;4.72;;
75234;SDS011;63817;51.228;-1.472;2023-04-02T06:33:29;8.50;;;5.07;;
75234;SDS011;63817;51.228;-1.472;2023-04-02T06:35:54;8.80;;;4.75;;
75234;SDS011;63817;51.228;-1.472;2023-04-02T06:38:22;8.75;;;5.43;;
75234;SDS011;63817;51.228;-1.472;2023-04-02T06:40:51;8.10;;;4.93;;
75234;SDS011;63817;51.228;-1.472;2023-04-02T06:46:02;7.78;;;4.80;;
75234;SDS011;63817;51.228;-1.472;2023-04-02T06:48:31;5.80;;;3.60;;
75234;SDS011;63817;51.228;-1.472;2023-04-02T06:53:34;8.60;;;4.50;;
75234;SDS011;63817;51.228;-1.472;2023-04-02T06:58:38;6.97;;;4.47;;
75234;SDS011;63817;51.228;-1.472;2023-04-02T07:01:04;6.82;;;4.30;;
75234;SDS011;63817;51.228;-1.472;2023-04-02T07:03:30;8.05;;;5.18;;
75234;SDS011;63817;51.228;-1.472;2023-04-02T07:05:56;11.13;;;5.60;;
75234;SDS011;63817;51.228;-1.472;2023-04-02T07:08:23;9.00;;;4.88;;
75234;SDS011;63817;51.228;-1.472;2023-04-02T07:10:49;8.95;;;5.38;;
75234;SDS011;63817;51.228;-1.472;2023-04-02T07:13:16;11.68;;;6.00;;
75234;SDS011;63817;51.228;-1.472;2023-04-02T07:15:47;10.10;;;4.95;;
75234;SDS011;63817;51.228;-1.472;2023-04-02T07:20:53;13.90;;;5.07;;
75234;SDS011;63817;51.228;-1.472;2023-04-02T07:23:19;10.60;;;5.45;;
75234;SDS011;63817;51.228;-1.472;2023-04-02T07:25:46;15.00;;;5.47;;
75234;SDS011;63817;51.228;-1.472;2023-04-02T07:28:14;10.30;;;4.55;;
75234;SDS011;63817;51.228;-1.472;2023-04-02T07:30:40;13.40;;;4.55;;
75234;SDS011;63817;51.228;-1.472;2023-04-02T07:33:06;12.10;;;4.47;;
75234;SDS011;63817;51.228;-1.472;2023-04-02T07:35:32;14.35;;;5.47;;
75234;SDS011;63817;51.228;-1.472;2023-04-02T07:37:58;17.65;;;5.45;;
75234;SDS011;63817;51.228;-1.472;2023-04-02T07:40:23;9.18;;;4.28;;
75234;SDS011;63817;51.228;-1.472;2023-04-02T07:42:49;8.85;;;4.43;;
75234;SDS011;63817;51.228;-1.472;2023-04-02T07:45:15;11.95;;;4.28;;
75234;SDS011;63817;51.228;-1.472;2023-04-02T07:47:40;9.07;;;3.78;;
75234;SDS011;63817;51.228;-1.472;2023-04-02T07:50:06;8.88;;;3.80;;
75234;SDS011;63817;51.228;-1.472;2023-04-02T07:52:32;7.38;;;3.70;;
75234;SDS011;63817;51.228;-1.472;2023-04-02T07:54:59;8.73;;;3.88;;
75234;SDS011;63817;51.228;-1.472;2023-04-02T07:57:26;9.98;;;3.50;;
75234;SDS011;63817;51.228;-1.472;2023-04-02T07:59:51;6.80;;;3.38;;
75234;SDS011;63817;51.228;-1.472;2023-04-02T08:02:20;9.20;;;3.40;;
75234;SDS011;63817;51.228;-1.472;2023-04-02T08:04:46;7.78;;;3.50;;
75234;SDS011;63817;51.228;-1.472;2023-04-02T08:07:12;9.90;;;4.15;;
75234;SDS011;63817;51.228;-1.472;2023-04-02T08:09:38;12.27;;;3.10;;
75234;SDS011;63817;51.228;-1.472;2023-04-02T08:12:03;6.55;;;2.95;;
75234;SDS011;63817;51.228;-1.472;2023-04-02T08:14:29;6.45;;;2.67;;
75234;SDS011;63817;51.228;-1.472;2023-04-02T08:16:54;8.30;;;2.42;;
75234;SDS011;63817;51.228;-1.472;2023-04-02T08:19:20;9.60;;;2.70;;
75234;SDS011;63817;51.228;-1.472;2023-04-02T08:21:46;55.85;;;4.75;;
75234;SDS011;63817;51.228;-1.472;2023-04-02T08:24:15;6.25;;;2.80;;
75234;SDS011;63817;51.228;-1.472;2023-04-02T08:26:43;8.23;;;3.28;;
75234;SDS011;63817;51.228;-1.472;2023-04-02T08:29:09;6.28;;;2.58;;
75234;SDS011;63817;51.228;-1.472;2023-04-02T08:31:35;3.75;;;2.38;;
75234;SDS011;63817;51.228;-1.472;2023-04-02T08:34:00;8.50;;;3.00;;
75234;SDS011;63817;51.228;-1.472;2023-04-02T08:36:27;7.60;;;2.97;;
75234;SDS011;63817;51.228;-1.472;2023-04-02T08:38:54;12.05;;;3.13;;
75234;SDS011;63817;51.228;-1.472;2023-04-02T08:41:21;7.60;;;2.50;;
75234;SDS011;63817;51.228;-1.472;2023-04-02T08:43:59;9.00;;;3.33;;
75234;SDS011;63817;51.228;-1.472;2023-04-02T08:46:44;8.68;;;3.53;;
75234;SDS011;63817;51.228;-1.472;2023-04-02T08:49:14;9.45;;;3.25;;
75234;SDS011;63817;51.228;-1.472;2023-04-02T08:51:41;12.07;;;3.42;;
75234;SDS011;63817;51.228;-1.472;2023-04-02T08:56:46;13.57;;;2.75;;
75234;SDS011;63817;51.228;-1.472;2023-04-02T08:59:35;19.35;;;3.28;;
75234;SDS011;63817;51.228;-1.472;2023-04-02T09:02:05;13.93;;;3.30;;
75234;SDS011;63817;51.228;-1.472;2023-04-02T09:04:41;8.73;;;3.35;;
75234;SDS011;63817;51.228;-1.472;2023-04-02T09:07:10;12.95;;;4.05;;
75234;SDS011;63817;51.228;-1.472;2023-04-02T09:09:38;13.18;;;3.10;;
75234;SDS011;63817;51.228;-1.472;2023-04-02T09:12:03;15.15;;;4.00;;
75234;SDS011;63817;51.228;-1.472;2023-04-02T09:17:18;13.63;;;3.30;;
75234;SDS011;63817;51.228;-1.472;2023-04-02T09:19:55;8.90;;;2.33;;
75234;SDS011;63817;51.228;-1.472;2023-04-02T09:22:26;8.80;;;2.50;;
75234;SDS011;63817;51.228;-1.472;2023-04-02T09:24:53;9.27;;;2.40;;
75234;SDS011;63817;51.228;-1.472;2023-04-02T09:27:21;10.13;;;3.00;;
75234;SDS011;63817;51.228;-1.472;2023-04-02T09:29:59;5.88;;;2.10;;
75234;SDS011;63817;51.228;-1.472;2023-04-02T09:37:40;10.50;;;2.33;;
75234;SDS011;63817;51.228;-1.472;2023-04-02T09:40:30;10.50;;;2.40;;
75234;SDS011;63817;51.228;-1.472;2023-04-02T09:43:09;15.25;;;2.67;;
75234;SDS011;63817;51.228;-1.472;2023-04-02T09:45:37;6.88;;;2.40;;
75234;SDS011;63817;51.228;-1.472;2023-04-02T09:48:02;6.07;;;2.30;;
75234;SDS011;63817;51.228;-1.472;2023-04-02T09:50:39;9.68;;;2.05;;
75234;SDS011;63817;51.228;-1.472;2023-04-02T09:56:06;9.60;;;2.28;;
75234;SDS011;63817;51.228;-1.472;2023-04-02T09:58:33;10.07;;;2.60;;
75234;SDS011;63817;51.228;-1.472;2023-04-02T10:00:58;12.65;;;2.78;;
75234;SDS011;63817;51.228;-1.472;2023-04-02T10:03:25;14.43;;;2.42;;
75234;SDS011;63817;51.228;-1.472;2023-04-02T10:08:36;9.60;;;2.50;;
75234;SDS011;63817;51.228;-1.472;2023-04-02T10:11:03;7.25;;;2.33;;
75234;SDS011;63817;51.228;-1.472;2023-04-02T10:13:34;9.45;;;2.90;;
75234;SDS011;63817;51.228;-1.472;2023-04-02T10:16:18;18.40;;;2.88;;
75234;SDS011;63817;51.228;-1.472;2023-04-02T10:21:23;13.18;;;2.25;;
75234;SDS011;63817;51.228;-1.472;2023-04-02T10:23:53;11.70;;;2.38;;
75234;SDS011;63817;51.228;-1.472;2023-04-02T10:29:07;10.02;;;2.60;;
75234;SDS011;63817;51.228;-1.472;2023-04-02T10:34:33;23.92;;;3.92;;
75234;SDS011;63817;51.228;-1.472;2023-04-02T10:37:36;19.30;;;3.50;;
75234;SDS011;63817;51.228;-1.472;2023-04-02T10:40:02;12.60;;;2.22;;
75234;SDS011;63817;51.228;-1.472;2023-04-02T10:42:39;25.90;;;2.53;;
75234;SDS011;63817;51.228;-1.472;2023-04-02T10:47:59;18.63;;;3.60;;
75234;SDS011;63817;51.228;-1.472;2023-04-02T10:55:41;19.38;;;4.18;;
75234;SDS011;63817;51.228;-1.472;2023-04-02T10:58:21;18.05;;;3.20;;
75234;SDS011;63817;51.228;-1.472;2023-04-02T11:00:48;18.48;;;2.80;;
75234;SDS011;63817;51.228;-1.472;2023-04-02T11:03:28;18.23;;;2.53;;
75234;SDS011;63817;51.228;-1.472;2023-04-02T11:05:59;17.40;;;2.60;;
75234;SDS011;63817;51.228;-1.472;2023-04-02T11:08:30;15.13;;;3.00;;
75234;SDS011;63817;51.228;-1.472;2023-04-02T11:11:11;18.35;;;2.50;;
75234;SDS011;63817;51.228;-1.472;2023-04-02T11:13:43;14.60;;;3.05;;
75234;SDS011;63817;51.228;-1.472;2023-04-02T11:16:14;14.65;;;2.88;;
75234;SDS011;63817;51.228;-1.472;2023-04-02T11:18:40;19.60;;;3.03;;
75234;SDS011;63817;51.228;-1.472;2023-04-02T11:21:06;16.27;;;2.72;;
75234;SDS011;63817;51.228;-1.472;2023-04-02T11:23:58;13.70;;;2.65;;
75234;SDS011;63817;51.228;-1.472;2023-04-02T11:29:14;23.63;;;3.33;;
75234;SDS011;63817;51.228;-1.472;2023-04-02T11:31:44;13.32;;;2.72;;
75234;SDS011;63817;51.228;-1.472;2023-04-02T11:39:59;12.18;;;2.83;;
75234;SDS011;63817;51.228;-1.472;2023-04-02T11:42:41;20.45;;;2.72;;
75234;SDS011;63817;51.228;-1.472;2023-04-02T11:45:56;16.55;;;2.78;;
75234;SDS011;63817;51.228;-1.472;2023-04-02T11:50:38;12.40;;;2.20;;
75234;SDS011;63817;51.228;-1.472;2023-04-02T11:55:45;15.20;;;2.20;;
75234;SDS011;63817;51.228;-1.472;2023-04-02T12:06:58;19.45;;;2.60;;
75234;SDS011;63817;51.228;-1.472;2023-04-02T12:09:28;13.05;;;3.10;;
75234;SDS011;63817;51.228;-1.472;2023-04-02T12:11:56;12.57;;;2.92;;
75234;SDS011;63817;51.228;-1.472;2023-04-02T12:17:16;18.00;;;3.40;;
75234;SDS011;63817;51.228;-1.472;2023-04-02T12:19:52;10.60;;;2.10;;
75234;SDS011;63817;51.228;-1.472;2023-04-02T12:22:27;21.60;;;3.08;;
75234;SDS011;63817;51.228;-1.472;2023-04-02T12:24:58;13.20;;;2.25;;
75234;SDS011;63817;51.228;-1.472;2023-04-02T12:27:26;10.73;;;1.90;;
75234;SDS011;63817;51.228;-1.472;2023-04-02T12:32:37;7.93;;;1.85;;
75234;SDS011;63817;51.228;-1.472;2023-04-02T12:35:03;12.13;;;2.33;;
75234;SDS011;63817;51.228;-1.472;2023-04-02T12:37:30;14.35;;;2.10;;
75234;SDS011;63817;51.228;-1.472;2023-04-02T12:39:59;10.20;;;2.42;;
75234;SDS011;63817;51.228;-1.472;2023-04-02T12:42:34;19.10;;;3.03;;
75234;SDS011;63817;51.228;-1.472;2023-04-02T12:45:02;11.05;;;2.22;;
75234;SDS011;63817;51.228;-1.472;2023-04-02T12:47:29;8.85;;;1.98;;
75234;SDS011;63817;51.228;-1.472;2023-04-02T12:49:55;10.43;;;1.83;;
75234;SDS011;63817;51.228;-1.472;2023-04-02T12:52:44;14.45;;;2.53;;
75234;SDS011;63817;51.228;-1.472;2023-04-02T12:55:29;11.00;;;2.47;;
75234;SDS011;63817;51.228;-1.472;2023-04-02T12:57:56;10.32;;;2.33;;
75234;SDS011;63817;51.228;-1.472;2023-04-02T13:02:57;12.20;;;2.55;;
75234;SDS011;63817;51.228;-1.472;2023-04-02T13:05:32;13.23;;;3.10;;
75234;SDS011;63817;51.228;-1.472;2023-04-02T13:07:59;15.10;;;3.42;;
75234;SDS011;63817;51.228;-1.472;2023-04-02T13:10:25;13.90;;;4.05;;
75234;SDS011;63817;51.228;-1.472;2023-04-02T13:12:58;10.38;;;2.30;;
75234;SDS011;63817;51.228;-1.472;2023-04-02T13:15:32;16.73;;;2.45;;
75234;SDS011;63817;51.228;-1.472;2023-04-02T13:22:55;19.17;;;3.40;;
75234;SDS011;63817;51.228;-1.472;2023-04-02T13:25:23;9.13;;;2.28;;
75234;SDS011;63817;51.228;-1.472;2023-04-02T13:28:00;11.02;;;2.50;;
75234;SDS011;63817;51.228;-1.472;2023-04-02T13:30:26;13.55;;;2.25;;
75234;SDS011;63817;51.228;-1.472;2023-04-02T13:32:53;12.77;;;2.45;;
75234;SDS011;63817;51.228;-1.472;2023-04-02T13:35:18;10.82;;;2.22;;
75234;SDS011;63817;51.228;-1.472;2023-04-02T13:37:45;8.52;;;2.40;;
75234;SDS011;63817;51.228;-1.472;2023-04-02T13:40:14;17.85;;;3.08;;
75234;SDS011;63817;51.228;-1.472;2023-04-02T13:42:41;9.15;;;1.95;;
75234;SDS011;63817;51.228;-1.472;2023-04-02T13:45:15;16.38;;;2.38;;
75234;SDS011;63817;51.228;-1.472;2023-04-02T13:47:45;13.98;;;3.75;;
75234;SDS011;63817;51.228;-1.472;2023-04-02T13:50:15;13.25;;;2.28;;
75234;SDS011;63817;51.228;-1.472;2023-04-02T13:52:45;13.68;;;2.75;;
75234;SDS011;63817;51.228;-1.472;2023-04-02T13:55:11;10.50;;;2.10;;
75234;SDS011;63817;51.228;-1.472;2023-04-02T13:57:37;14.00;;;3.03;;
75234;SDS011;63817;51.228;-1.472;2023-04-02T14:00:03;10.70;;;2.47;;
75234;SDS011;63817;51.228;-1.472;2023-04-02T14:02:29;16.08;;;2.75;;
75234;SDS011;63817;51.228;-1.472;2023-04-02T14:05:14;10.25;;;2.85;;
75234;SDS011;63817;51.228;-1.472;2023-04-02T14:13:22;9.85;;;2.33;;
75234;SDS011;63817;51.228;-1.472;2023-04-02T14:21:33;12.85;;;2.80;;
75234;SDS011;63817;51.228;-1.472;2023-04-02T14:29:39;11.13;;;2.80;;
75234;SDS011;63817;51.228;-1.472;2023-04-02T14:32:52;10.07;;;2.72;;
75234;SDS011;63817;51.228;-1.472;2023-04-02T14:45:46;16.95;;;2.28;;
75234;SDS011;63817;51.228;-1.472;2023-04-02T14:51:26;16.80;;;2.22;;
75234;SDS011;63817;51.228;-1.472;2023-04-02T14:53:59;15.10;;;2.45;;
75234;SDS011;63817;51.228;-1.472;2023-04-02T14:56:32;9.13;;;2.00;;
75234;SDS011;63817;51.228;-1.472;2023-04-02T14:59:20;16.27;;;2.97;;
75234;SDS011;63817;51.228;-1.472;2023-04-02T15:01:52;10.60;;;2.72;;
75234;SDS011;63817;51.228;-1.472;2023-04-02T15:04:22;17.73;;;4.22;;
75234;SDS011;63817;51.228;-1.472;2023-04-02T15:06:52;13.45;;;3.53;;
75234;SDS011;63817;51.228;-1.472;2023-04-02T15:09:39;12.50;;;3.97;;
75234;SDS011;63817;51.228;-1.472;2023-04-02T15:12:08;10.43;;;3.10;;
75234;SDS011;63817;51.228;-1.472;2023-04-02T15:17:12;22.17;;;9.17;;
75234;SDS011;63817;51.228;-1.472;2023-04-02T15:19:37;8.80;;;4.00;;
75234;SDS011;63817;51.228;-1.472;2023-04-02T15:24:56;18.10;;;4.65;;
75234;SDS011;63817;51.228;-1.472;2023-04-02T15:30:34;24.55;;;9.38;;
75234;SDS011;63817;51.228;-1.472;2023-04-02T15:33:24;12.48;;;3.15;;
75234;SDS011;63817;51.228;-1.472;2023-04-02T15:35:55;17.98;;;3.20;;
75234;SDS011;63817;51.228;-1.472;2023-04-02T15:38:28;14.80;;;6.70;;
75234;SDS011;63817;51.228;-1.472;2023-04-02T15:43:42;7.47;;;2.90;;
75234;SDS011;63817;51.228;-1.472;2023-04-02T15:46:21;12.15;;;3.13;;
75234;SDS011;63817;51.228;-1.472;2023-04-02T15:51:35;8.32;;;3.40;;
75234;SDS011;63817;51.228;-1.472;2023-04-02T15:54:17;13.23;;;3.38;;
75234;SDS011;63817;51.228;-1.472;2023-04-02T16:05:16;15.98;;;3.90;;
75234;SDS011;63817;51.228;-1.472;2023-04-02T16:12:49;11.20;;;3.80;;
75234;SDS011;63817;51.228;-1.472;2023-04-02T16:15:17;16.20;;;3.83;;
75234;SDS011;63817;51.228;-1.472;2023-04-02T16:17:57;14.03;;;4.57;;
75234;SDS011;63817;51.228;-1.472;2023-04-02T16:20:27;11.05;;;3.00;;
75234;SDS011;63817;51.228;-1.472;2023-04-02T16:23:01;9.40;;;3.78;;
75234;SDS011;63817;51.228;-1.472;2023-04-02T16:26:02;9.95;;;2.85;;
75234;SDS011;63817;51.228;-1.472;2023-04-02T16:31:53;5.90;;;3.00;;
75234;SDS011;63817;51.228;-1.472;2023-04-02T16:37:20;13.15;;;2.45;;
75234;SDS011;63817;51.228;-1.472;2023-04-02T16:39:56;6.85;;;2.80;;
75234;SDS011;63817;51.228;-1.472;2023-04-02T16:53:34;13.45;;;2.92;;
75234;SDS011;63817;51.228;-1.472;2023-04-02T16:56:13;8.60;;;2.70;;
75234;SDS011;63817;51.228;-1.472;2023-04-02T16:58:53;10.75;;;2.38;;
75234;SDS011;63817;51.228;-1.472;2023-04-02T17:07:28;6.78;;;2.00;;
75234;SDS011;63817;51.228;-1.472;2023-04-02T17:13:25;11.18;;;2.90;;
75234;SDS011;63817;51.228;-1.472;2023-04-02T17:15:52;17.40;;;2.83;;
75234;SDS011;63817;51.228;-1.472;2023-04-02T17:18:24;12.35;;;2.97;;
75234;SDS011;63817;51.228;-1.472;2023-04-02T17:20:50;12.65;;;3.55;;
75234;SDS011;63817;51.228;-1.472;2023-04-02T17:23:16;13.27;;;3.63;;
75234;SDS011;63817;51.228;-1.472;2023-04-02T17:25:44;10.10;;;2.78;;
75234;SDS011;63817;51.228;-1.472;2023-04-02T17:28:14;9.25;;;2.35;;
75234;SDS011;63817;51.228;-1.472;2023-04-02T17:30:42;22.83;;;2.97;;
75234;SDS011;63817;51.228;-1.472;2023-04-02T17:33:14;17.63;;;3.67;;
75234;SDS011;63817;51.228;-1.472;2023-04-02T17:35:47;6.22;;;2.30;;
75234;SDS011;63817;51.228;-1.472;2023-04-02T17:41:32;9.73;;;2.17;;
75234;SDS011;63817;51.228;-1.472;2023-04-02T17:43:44;11.30;;;2.78;;
75234;SDS011;63817;51.228;-1.472;2023-04-02T17:48:46;11.07;;;2.95;;
75234;SDS011;63817;51.228;-1.472;2023-04-02T17:51:17;15.52;;;3.45;;
75234;SDS011;63817;51.228;-1.472;2023-04-02T17:54:17;8.20;;;2.33;;
75234;SDS011;63817;51.228;-1.472;2023-04-02T17:57:26;8.38;;;2.42;;
75234;SDS011;63817;51.228;-1.472;2023-04-02T18:00:08;8.10;;;2.45;;
75234;SDS011;63817;51.228;-1.472;2023-04-02T18:03:02;10.55;;;2.40;;
75234;SDS011;63817;51.228;-1.472;2023-04-02T18:08:59;9.15;;;2.17;;
75234;SDS011;63817;51.228;-1.472;2023-04-02T18:11:38;12.95;;;2.40;;
75234;SDS011;63817;51.228;-1.472;2023-04-02T18:20:27;10.95;;;3.10;;
75234;SDS011;63817;51.228;-1.472;2023-04-02T18:28:30;7.95;;;2.65;;
75234;SDS011;63817;51.228;-1.472;2023-04-02T18:31:12;10.77;;;4.28;;
75234;SDS011;63817;51.228;-1.472;2023-04-02T18:34:07;12.80;;;4.88;;
75234;SDS011;63817;51.228;-1.472;2023-04-02T18:45:00;16.80;;;3.50;;
75234;SDS011;63817;51.228;-1.472;2023-04-02T18:50:37;11.95;;;3.38;;
75234;SDS011;63817;51.228;-1.472;2023-04-02T18:53:10;9.60;;;2.90;;
75234;SDS011;63817;51.228;-1.472;2023-04-02T18:55:38;9.05;;;2.65;;
75234;SDS011;63817;51.228;-1.472;2023-04-02T18:58:12;15.70;;;3.00;;
75234;SDS011;63817;51.228;-1.472;2023-04-02T19:00:40;14.85;;;4.05;;
75234;SDS011;63817;51.228;-1.472;2023-04-02T19:05:49;11.70;;;2.85;;
75234;SDS011;63817;51.228;-1.472;2023-04-02T19:08:19;8.68;;;2.60;;
75234;SDS011;63817;51.228;-1.472;2023-04-02T19:10:56;9.15;;;2.63;;
75234;SDS011;63817;51.228;-1.472;2023-04-02T19:13:23;10.27;;;2.78;;
75234;SDS011;63817;51.228;-1.472;2023-04-02T19:19:18;6.68;;;2.60;;
75234;SDS011;63817;51.228;-1.472;2023-04-02T19:26:57;7.15;;;2.95;;
75234;SDS011;63817;51.228;-1.472;2023-04-02T19:29:35;9.00;;;3.50;;
75234;SDS011;63817;51.228;-1.472;2023-04-02T19:32:31;14.48;;;2.97;;
75234;SDS011;63817;51.228;-1.472;2023-04-02T19:43:17;9.05;;;2.55;;
75234;SDS011;63817;51.228;-1.472;2023-04-02T19:45:43;10.02;;;2.33;;